createdAt,value
2023-02-14T00:02:21.882Z,86.04
2023-02-14T00:04:48.875Z,86.16
2023-02-14T00:07:18.920Z,86.30
2023-02-14T00:09:53.758Z,86.18
2023-02-14T00:12:30.483Z,86.45
2023-02-14T00:15:16.375Z,86.24
2023-02-14T00:17:45.419Z,86.05
2023-02-14T00:20:12.388Z,86.58
2023-02-14T00:22:39.455Z,86.13
2023-02-14T00:25:06.697Z,86.01
2023-02-14T00:27:33.913Z,86.50
2023-02-14T00:30:03.370Z,86.64
2023-02-14T00:32:33.886Z,86.07
2023-02-14T00:35:00.746Z,86.18
2023-02-14T00:37:27.705Z,86.41
2023-02-14T00:39:54.616Z,86.76
2023-02-14T00:42:21.740Z,86.85
2023-02-14T00:44:48.604Z,86.94
2023-02-14T00:47:15.478Z,87.13
2023-02-14T00:49:42.686Z,87.26
2023-02-14T00:52:09.594Z,87.31
2023-02-14T00:54:44.907Z,87.47
2023-02-14T00:57:14.179Z,87.06
2023-02-14T00:59:41.070Z,87.24
2023-02-14T01:02:08.128Z,87.02
2023-02-14T01:04:35.141Z,87.36
2023-02-14T01:07:02.063Z,87.31
2023-02-14T01:09:28.943Z,87.10
2023-02-14T01:11:56.254Z,87.21
2023-02-14T01:14:23.126Z,87.44
2023-02-14T01:16:50.276Z,87.48
2023-02-14T01:19:36.806Z,87.49
2023-02-14T01:22:22.188Z,87.64
2023-02-14T01:24:51.799Z,87.68
2023-02-14T01:27:38.078Z,88.77
2023-02-14T01:30:11.713Z,89.62
2023-02-14T01:32:38.825Z,90.11
2023-02-14T01:35:05.932Z,90.66
2023-02-14T01:37:33.188Z,90.94
2023-02-14T01:40:02.757Z,91.25
2023-02-14T01:42:33.492Z,90.77
2023-02-14T01:45:09.998Z,91.02
2023-02-14T01:47:41.451Z,91.14
2023-02-14T01:50:30.684Z,91.31
2023-02-14T01:53:11.520Z,92.25
2023-02-14T01:55:44.337Z,93.03
2023-02-14T01:58:24.036Z,93.20
2023-02-14T02:00:57.222Z,93.60
2023-02-14T02:03:36.429Z,93.99
2023-02-14T02:06:16.962Z,94.23
2023-02-14T02:09:01.191Z,93.89
2023-02-14T02:11:29.446Z,94.27
2023-02-14T02:13:56.387Z,93.75
2023-02-14T02:17:11.277Z,93.58
2023-02-14T02:20:16.252Z,93.99
2023-02-14T02:23:04.683Z,94.13
2023-02-14T02:25:53.571Z,94.23
2023-02-14T02:28:30.192Z,93.93
2023-02-14T02:31:15.113Z,94.22
2023-02-14T02:34:12.954Z,94.60
2023-02-14T02:37:13.142Z,94.80
2023-02-14T02:39:42.781Z,95.75
2023-02-14T02:42:22.207Z,95.50
2023-02-14T02:45:11.896Z,95.06
2023-02-14T02:47:38.749Z,94.90
2023-02-14T02:50:33.198Z,95.00
2023-02-14T02:53:24.500Z,95.25
2023-02-14T02:56:16.632Z,94.83
2023-02-14T02:58:52.676Z,95.26
2023-02-14T03:01:28.392Z,95.44
2023-02-14T03:04:20.529Z,95.17
2023-02-14T03:06:48.503Z,94.59
2023-02-14T03:09:21.380Z,94.49
2023-02-14T03:12:00.852Z,95.14
2023-02-14T03:14:44.342Z,94.55
2023-02-14T03:17:45.595Z,94.27
2023-02-14T03:20:42.477Z,94.23
2023-02-14T03:23:43.533Z,94.31
2023-02-14T03:26:34.949Z,93.93
2023-02-14T03:29:31.218Z,94.16
2023-02-14T03:32:28.744Z,94.03
2023-02-14T03:35:20.955Z,94.08
2023-02-14T03:38:38.279Z,93.96
2023-02-14T03:41:17.371Z,94.23
2023-02-14T03:43:54.802Z,94.24
2023-02-14T03:46:28.160Z,94.67
2023-02-14T03:48:58.360Z,94.96
2023-02-14T03:51:28.033Z,94.89
2023-02-14T03:53:58.144Z,94.67
2023-02-14T03:56:52.055Z,94.55
2023-02-14T03:59:24.090Z,94.92
2023-02-14T04:02:06.987Z,95.16
2023-02-14T04:04:37.266Z,95.31
2023-02-14T04:07:15.600Z,95.54
2023-02-14T04:09:43.050Z,95.60
2023-02-14T04:12:10.706Z,95.56
2023-02-14T04:14:38.420Z,95.51
2023-02-14T04:17:23.980Z,95.48
2023-02-14T04:19:57.029Z,95.65
2023-02-14T04:22:24.282Z,95.33
2023-02-14T04:24:51.539Z,95.12
2023-02-14T04:27:18.558Z,94.32
2023-02-14T04:29:48.666Z,94.92
2023-02-14T04:32:19.149Z,94.63
2023-02-14T04:34:46.730Z,94.83
2023-02-14T04:37:22.031Z,94.53
2023-02-14T04:39:49.230Z,94.68
2023-02-14T04:42:16.438Z,94.66
2023-02-14T04:44:43.414Z,94.11
2023-02-14T04:47:10.339Z,94.56
2023-02-14T04:49:37.238Z,94.13
2023-02-14T04:52:05.499Z,94.40
2023-02-14T04:54:33.613Z,93.99
2023-02-14T04:57:00.612Z,93.34
2023-02-14T04:59:27.624Z,92.69
2023-02-14T05:01:54.722Z,92.95
2023-02-14T05:04:21.801Z,92.01
2023-02-14T05:06:48.667Z,91.96
2023-02-14T05:09:15.788Z,91.22
2023-02-14T05:11:42.812Z,91.40
2023-02-14T05:14:09.864Z,91.15
2023-02-14T05:16:38.480Z,90.64
2023-02-14T05:19:05.516Z,90.16
2023-02-14T05:21:33.291Z,89.88
2023-02-14T05:24:00.926Z,89.91
2023-02-14T05:26:28.297Z,89.58
2023-02-14T05:28:55.293Z,89.77
2023-02-14T05:31:34.878Z,89.68
2023-02-14T05:34:04.486Z,89.26
2023-02-14T05:36:31.596Z,88.81
2023-02-14T05:38:58.565Z,88.66
2023-02-14T05:41:31.613Z,88.25
2023-02-14T05:44:28.526Z,88.29
2023-02-14T05:47:14.149Z,88.45
2023-02-14T05:49:41.066Z,88.64
2023-02-14T05:52:07.948Z,88.96
2023-02-14T05:54:38.107Z,88.24
2023-02-14T05:57:06.786Z,88.67
2023-02-14T05:59:33.728Z,88.51
2023-02-14T06:02:00.959Z,88.84
2023-02-14T06:04:28.028Z,88.74
2023-02-14T06:06:54.952Z,88.92
2023-02-14T06:09:21.996Z,88.58
2023-02-14T06:11:48.925Z,88.50
2023-02-14T06:14:15.921Z,88.15
2023-02-14T06:16:42.942Z,88.21
2023-02-14T06:19:09.947Z,88.45
2023-02-14T06:21:37.807Z,88.83
2023-02-14T06:24:06.063Z,89.14
2023-02-14T06:26:38.854Z,88.54
2023-02-14T06:29:12.190Z,88.75
2023-02-14T06:31:39.177Z,89.16
2023-02-14T06:34:06.945Z,89.40
2023-02-14T06:36:37.330Z,89.59
2023-02-14T06:39:08.141Z,89.74
2023-02-14T06:41:35.098Z,89.16
2023-02-14T06:44:02.294Z,89.43
2023-02-14T06:46:29.476Z,90.10
2023-02-14T06:48:56.663Z,90.58
2023-02-14T06:51:23.631Z,91.13
2023-02-14T06:53:50.631Z,91.59
2023-02-14T06:56:17.584Z,91.28
2023-02-14T06:58:44.597Z,90.96
2023-02-14T07:01:11.688Z,90.69
2023-02-14T07:03:38.800Z,90.66
2023-02-14T07:06:05.904Z,90.37
2023-02-14T07:08:33.230Z,89.03
2023-02-14T07:11:00.356Z,89.21
2023-02-14T07:13:27.456Z,89.00
2023-02-14T07:15:54.918Z,89.27
2023-02-14T07:18:21.851Z,88.28
2023-02-14T07:20:50.416Z,88.49
2023-02-14T07:23:17.595Z,88.27
2023-02-14T07:25:44.630Z,88.88
2023-02-14T07:28:11.596Z,87.44
2023-02-14T07:30:38.490Z,87.86
2023-02-14T07:33:05.546Z,87.49
2023-02-14T07:35:40.937Z,86.96
2023-02-14T07:38:11.812Z,87.20
2023-02-14T07:40:38.677Z,87.67
2023-02-14T07:43:05.711Z,88.03
2023-02-14T07:45:32.528Z,88.71
2023-02-14T07:48:02.161Z,88.87
2023-02-14T07:50:29.608Z,89.05
2023-02-14T07:52:56.971Z,88.77
2023-02-14T07:55:26.771Z,88.95
2023-02-14T07:57:53.807Z,88.79
2023-02-14T08:00:21.273Z,88.78
2023-02-14T08:02:49.540Z,88.22
2023-02-14T08:05:16.577Z,88.88
2023-02-14T08:07:44.413Z,89.54
2023-02-14T08:10:13.140Z,90.09
2023-02-14T08:13:03.896Z,90.44
2023-02-14T08:15:55.951Z,91.02
2023-02-14T08:18:27.702Z,90.44
2023-02-14T08:20:54.573Z,89.57
2023-02-14T08:23:22.071Z,89.69
2023-02-14T08:25:50.314Z,89.12
2023-02-14T08:28:18.220Z,89.80
2023-02-14T08:30:45.505Z,90.47
2023-02-14T08:33:12.581Z,90.66
2023-02-14T08:35:39.677Z,90.91
2023-02-14T08:38:06.924Z,91.32
2023-02-14T08:40:36.289Z,91.67
2023-02-14T08:43:05.185Z,91.22
2023-02-14T08:45:32.245Z,90.90
2023-02-14T08:48:17.611Z,89.71
2023-02-14T08:50:54.658Z,89.05
2023-02-14T08:53:22.525Z,87.09
2023-02-14T08:55:49.515Z,86.82
2023-02-14T08:58:16.516Z,86.20
2023-02-14T09:00:43.545Z,85.22
2023-02-14T09:03:10.827Z,85.19
2023-02-14T09:05:37.809Z,84.25
2023-02-14T09:08:04.919Z,84.70
2023-02-14T09:10:31.852Z,82.57
2023-02-14T09:12:58.842Z,80.11
2023-02-14T09:15:27.901Z,78.47
2023-02-14T09:17:55.216Z,76.32
2023-02-14T09:20:22.590Z,78.04
2023-02-14T09:22:49.764Z,76.10
2023-02-14T09:25:17.512Z,73.95
2023-02-14T09:27:44.578Z,75.46
2023-02-14T09:30:12.199Z,74.98
2023-02-14T09:32:39.445Z,75.50
2023-02-14T09:35:07.052Z,76.07
2023-02-14T09:37:52.754Z,75.32
2023-02-14T09:40:20.760Z,73.98
2023-02-14T09:43:10.204Z,72.68
2023-02-14T09:45:38.618Z,73.39
2023-02-14T09:48:31.804Z,73.06
2023-02-14T09:51:05.585Z,71.94
2023-02-14T09:53:35.441Z,73.87
2023-02-14T09:56:12.341Z,73.31
2023-02-14T09:58:42.835Z,72.97
2023-02-14T10:01:26.632Z,73.34
2023-02-14T10:04:05.649Z,73.43
2023-02-14T10:06:55.732Z,73.48
2023-02-14T10:09:40.485Z,74.03
2023-02-14T10:12:16.431Z,74.48
2023-02-14T10:14:43.929Z,74.83
2023-02-14T10:17:31.509Z,74.54
2023-02-14T10:20:04.418Z,73.85
2023-02-14T10:22:50.627Z,73.43
2023-02-14T10:25:24.541Z,74.21
2023-02-14T10:27:56.404Z,73.59
2023-02-14T10:30:24.169Z,74.46
2023-02-14T10:33:16.363Z,73.04
2023-02-14T10:36:00.562Z,73.02
2023-02-14T10:38:49.452Z,72.26
2023-02-14T10:41:19.475Z,72.12
2023-02-14T10:43:52.365Z,71.15
2023-02-14T10:46:31.373Z,70.34
2023-02-14T10:49:13.498Z,69.99
2023-02-14T10:52:11.390Z,70.52
2023-02-14T10:54:57.381Z,70.12
2023-02-14T10:57:36.020Z,69.79
2023-02-14T11:00:14.366Z,70.37
2023-02-14T11:02:45.257Z,69.95
2023-02-14T11:05:32.925Z,70.63
2023-02-14T11:08:00.680Z,71.17
2023-02-14T11:10:34.075Z,71.23
2023-02-14T11:13:01.130Z,71.78
2023-02-14T11:15:34.351Z,72.63
2023-02-14T11:18:25.166Z,73.64
2023-02-14T11:21:17.818Z,74.24
2023-02-14T11:23:47.275Z,74.56
2023-02-14T11:26:16.873Z,75.53
2023-02-14T11:28:52.292Z,76.76
2023-02-14T11:31:32.584Z,77.37
2023-02-14T11:34:02.955Z,77.88
2023-02-14T11:36:48.104Z,76.91
2023-02-14T11:39:35.989Z,76.05
2023-02-14T11:42:05.832Z,75.46
2023-02-14T11:44:36.880Z,75.30
2023-02-14T11:47:19.099Z,72.86
2023-02-14T11:50:01.204Z,72.26
2023-02-14T11:52:30.874Z,72.07
2023-02-14T11:54:58.682Z,71.41
2023-02-14T11:57:33.961Z,70.66
2023-02-14T12:00:16.208Z,70.30
2023-02-14T12:03:03.000Z,70.15
2023-02-14T12:05:50.196Z,70.59
2023-02-14T12:08:25.232Z,69.91
2023-02-14T12:11:04.430Z,70.44
2023-02-14T12:13:32.490Z,69.19
2023-02-14T12:16:00.531Z,68.38
2023-02-14T12:19:03.155Z,69.09
2023-02-14T12:21:42.462Z,69.25
2023-02-14T12:24:32.061Z,69.86
2023-02-14T12:26:59.298Z,69.52
2023-02-14T12:29:46.884Z,70.07
2023-02-14T12:32:25.354Z,70.20
2023-02-14T12:35:01.783Z,69.55
2023-02-14T12:37:50.830Z,69.45
2023-02-14T12:40:44.888Z,70.16
2023-02-14T12:43:52.887Z,69.05
2023-02-14T12:46:44.548Z,69.62
2023-02-14T12:49:33.232Z,69.79
2023-02-14T12:52:33.851Z,69.01
2023-02-14T12:55:12.753Z,69.31
2023-02-14T12:58:05.800Z,69.21
2023-02-14T13:00:59.439Z,69.79
2023-02-14T13:03:56.266Z,70.21
2023-02-14T13:06:29.363Z,69.17
2023-02-14T13:09:17.894Z,69.31
2023-02-14T13:11:54.524Z,69.45
2023-02-14T13:15:01.835Z,68.64
2023-02-14T13:17:52.155Z,68.88
2023-02-14T13:20:49.283Z,68.94
2023-02-14T13:23:22.505Z,69.70
2023-02-14T13:26:09.684Z,69.15
2023-02-14T13:28:38.614Z,69.41
2023-02-14T13:31:06.505Z,68.98
2023-02-14T13:33:38.546Z,69.93
2023-02-14T13:36:08.979Z,70.33
2023-02-14T13:38:44.973Z,69.97
2023-02-14T13:41:14.346Z,70.39
2023-02-14T13:43:58.576Z,70.98
2023-02-14T13:46:34.670Z,70.85
2023-02-14T13:49:35.034Z,71.37
2023-02-14T13:52:05.121Z,71.65
2023-02-14T13:54:32.593Z,71.69
2023-02-14T13:57:24.159Z,71.75
2023-02-14T14:00:21.785Z,71.83
2023-02-14T14:02:50.244Z,71.98
2023-02-14T14:05:42.988Z,72.54
2023-02-14T14:08:22.476Z,72.56
2023-02-14T14:10:50.954Z,73.56
2023-02-14T14:13:42.423Z,73.74
2023-02-14T14:16:27.730Z,73.52
2023-02-14T14:19:04.751Z,73.34
2023-02-14T14:21:34.759Z,73.12
2023-02-14T14:24:22.839Z,73.40
2023-02-14T14:26:58.180Z,73.71
2023-02-14T14:29:34.853Z,74.11
2023-02-14T14:32:18.383Z,74.40
2023-02-14T14:34:50.956Z,74.58
2023-02-14T14:37:21.846Z,75.03
2023-02-14T14:39:57.857Z,75.48
2023-02-14T14:42:29.155Z,75.48
2023-02-14T14:45:02.914Z,75.96
2023-02-14T14:47:43.420Z,76.35
2023-02-14T14:50:26.590Z,76.34
2023-02-14T14:52:57.275Z,76.19
2023-02-14T14:55:30.160Z,76.44
2023-02-14T14:58:04.230Z,76.28
2023-02-14T15:00:37.217Z,76.45
2023-02-14T15:03:14.950Z,76.79
2023-02-14T15:05:45.363Z,76.79
2023-02-14T15:08:34.091Z,77.60
2023-02-14T15:11:08.950Z,77.54
2023-02-14T15:13:50.191Z,77.58
2023-02-14T15:16:38.488Z,78.50
2023-02-14T15:19:19.027Z,78.40
2023-02-14T15:21:46.339Z,78.70
2023-02-14T15:24:16.173Z,80.06
2023-02-14T15:26:46.334Z,83.27
2023-02-14T15:29:28.770Z,84.46
2023-02-14T15:31:59.415Z,86.57
2023-02-14T15:34:31.463Z,88.08
2023-02-14T15:37:03.991Z,86.97
2023-02-14T15:39:43.290Z,85.37
2023-02-14T15:42:32.675Z,86.41
2023-02-14T15:45:18.222Z,85.45
2023-02-14T15:47:48.549Z,85.54
2023-02-14T15:50:19.244Z,85.15
2023-02-14T15:52:48.264Z,84.22
2023-02-14T15:55:20.090Z,83.63
2023-02-14T15:57:55.383Z,83.67
2023-02-14T16:00:23.840Z,82.76
2023-02-14T16:03:02.844Z,82.95
2023-02-14T16:05:29.863Z,82.47
2023-02-14T16:08:03.680Z,81.13
2023-02-14T16:10:38.472Z,80.67
2023-02-14T16:13:14.866Z,80.34
2023-02-14T16:15:59.228Z,80.95
2023-02-14T16:18:40.396Z,81.13
2023-02-14T16:21:11.710Z,80.51
2023-02-14T16:23:39.385Z,80.06
2023-02-14T16:26:07.190Z,79.47
2023-02-14T16:28:34.698Z,79.92
2023-02-14T16:31:11.119Z,79.59
2023-02-14T16:33:40.389Z,79.62
2023-02-14T16:36:21.729Z,78.79
2023-02-14T16:38:50.148Z,79.57
2023-02-14T16:41:24.217Z,80.03
2023-02-14T16:43:51.270Z,79.45
2023-02-14T16:46:21.740Z,79.97
2023-02-14T16:48:52.916Z,79.90
2023-02-14T16:51:24.852Z,79.90
2023-02-14T16:53:52.537Z,80.46
2023-02-14T16:56:22.802Z,79.42
2023-02-14T16:58:50.108Z,79.69
2023-02-14T17:01:17.277Z,79.40
2023-02-14T17:03:44.807Z,79.01
2023-02-14T17:06:17.040Z,79.35
2023-02-14T17:08:45.169Z,78.76
2023-02-14T17:11:12.439Z,78.28
2023-02-14T17:13:44.417Z,78.54
2023-02-14T17:16:15.688Z,78.74
2023-02-14T17:18:47.686Z,77.78
2023-02-14T17:21:16.376Z,77.71
2023-02-14T17:23:43.398Z,77.65
2023-02-14T17:26:11.332Z,77.83
2023-02-14T17:28:38.418Z,77.14
2023-02-14T17:31:05.729Z,77.36
2023-02-14T17:33:33.649Z,77.94
2023-02-14T17:36:11.938Z,77.69
2023-02-14T17:38:40.645Z,76.08
2023-02-14T17:41:16.610Z,76.67
2023-02-14T17:43:43.711Z,76.78
2023-02-14T17:46:10.924Z,77.50
2023-02-14T17:48:37.968Z,77.43
2023-02-14T17:51:09.587Z,77.58
2023-02-14T17:53:36.599Z,78.29
2023-02-14T17:56:06.180Z,78.39
2023-02-14T17:58:33.328Z,78.79
2023-02-14T18:01:08.712Z,79.40
2023-02-14T18:03:36.062Z,80.77
2023-02-14T18:06:04.498Z,84.10
2023-02-14T18:08:35.722Z,87.31
2023-02-14T18:11:10.686Z,88.20
2023-02-14T18:13:37.884Z,87.80
2023-02-14T18:16:06.927Z,87.29
2023-02-14T18:18:34.333Z,87.63
2023-02-14T18:21:03.943Z,87.13
2023-02-14T18:23:31.427Z,86.81
2023-02-14T18:26:01.783Z,86.17
2023-02-14T18:28:28.932Z,85.73
2023-02-14T18:30:58.094Z,85.76
2023-02-14T18:33:25.723Z,86.03
2023-02-14T18:35:52.681Z,86.38
2023-02-14T18:38:19.789Z,85.63
2023-02-14T18:40:47.636Z,86.21
2023-02-14T18:43:14.629Z,86.26
2023-02-14T18:45:41.534Z,85.93
2023-02-14T18:48:09.259Z,86.15
2023-02-14T18:50:36.508Z,86.30
2023-02-14T18:53:03.441Z,85.63
2023-02-14T18:55:30.448Z,84.87
2023-02-14T18:57:57.536Z,85.53
2023-02-14T19:00:25.958Z,84.79
2023-02-14T19:02:52.882Z,84.91
2023-02-14T19:05:19.994Z,84.98
2023-02-14T19:07:47.348Z,83.13
2023-02-14T19:10:14.227Z,83.11
2023-02-14T19:12:41.166Z,83.98
2023-02-14T19:15:08.637Z,83.19
2023-02-14T19:17:36.290Z,82.60
2023-02-14T19:20:08.565Z,81.44
2023-02-14T19:22:39.694Z,82.12
2023-02-14T19:25:07.706Z,80.48
2023-02-14T19:27:34.692Z,81.03
2023-02-14T19:30:01.716Z,79.76
2023-02-14T19:32:31.357Z,79.40
2023-02-14T19:34:58.273Z,79.44
2023-02-14T19:37:26.811Z,79.55
2023-02-14T19:39:53.815Z,79.78
2023-02-14T19:42:20.942Z,78.81
2023-02-14T19:44:47.906Z,78.98
2023-02-14T19:47:30.908Z,79.64
2023-02-14T19:50:04.369Z,78.54
2023-02-14T19:52:31.825Z,78.79
2023-02-14T19:54:58.972Z,78.73
2023-02-14T19:57:26.255Z,78.64
2023-02-14T19:59:53.730Z,78.83
2023-02-14T20:02:22.120Z,78.55
2023-02-14T20:04:49.224Z,78.26
2023-02-14T20:07:17.536Z,76.89
2023-02-14T20:09:44.845Z,78.19
2023-02-14T20:12:11.856Z,78.30
2023-02-14T20:14:50.992Z,78.32
2023-02-14T20:17:19.531Z,77.03
2023-02-14T20:19:46.796Z,77.22
2023-02-14T20:22:13.750Z,77.28
2023-02-14T20:24:40.604Z,77.28
2023-02-14T20:27:08.213Z,76.95
2023-02-14T20:29:35.328Z,76.77
2023-02-14T20:32:04.998Z,76.46
2023-02-14T20:34:31.972Z,75.83
2023-02-14T20:36:59.384Z,76.52
2023-02-14T20:39:32.166Z,76.30
2023-02-14T20:42:00.346Z,75.89
2023-02-14T20:44:27.454Z,76.29
2023-02-14T20:46:56.105Z,76.40
2023-02-14T20:49:25.337Z,75.64
2023-02-14T20:51:53.678Z,76.18
2023-02-14T20:54:22.874Z,76.10
2023-02-14T20:56:51.268Z,76.60
2023-02-14T20:59:28.289Z,75.95
2023-02-14T21:01:56.485Z,75.69
2023-02-14T21:04:23.919Z,76.27
2023-02-14T21:06:50.905Z,75.41
2023-02-14T21:09:18.782Z,74.97
2023-02-14T21:11:45.886Z,74.67
2023-02-14T21:14:13.368Z,75.01
2023-02-14T21:16:40.327Z,75.52
2023-02-14T21:19:07.361Z,75.21
2023-02-14T21:21:38.561Z,75.26
2023-02-14T21:24:11.756Z,75.33
2023-02-14T21:26:39.215Z,75.13
2023-02-14T21:29:06.831Z,74.47
2023-02-14T21:31:34.210Z,74.73
2023-02-14T21:34:02.717Z,74.59
2023-02-14T21:36:32.175Z,74.30
2023-02-14T21:39:00.095Z,74.57
2023-02-14T21:41:31.134Z,74.49
2023-02-14T21:43:59.762Z,75.04
2023-02-14T21:46:31.183Z,74.30
2023-02-14T21:49:21.893Z,74.97
2023-02-14T21:51:49.220Z,74.35
2023-02-14T21:54:17.135Z,73.43
2023-02-14T21:56:44.170Z,73.67
2023-02-14T21:59:11.783Z,74.24
2023-02-14T22:01:40.519Z,73.92
2023-02-14T22:04:09.440Z,73.56
2023-02-14T22:06:38.224Z,74.22
2023-02-14T22:09:06.527Z,74.21
2023-02-14T22:11:34.291Z,73.80
2023-02-14T22:14:01.298Z,73.10
2023-02-14T22:16:28.572Z,72.96
2023-02-14T22:18:55.791Z,73.41
2023-02-14T22:21:24.590Z,73.25
2023-02-14T22:23:51.669Z,73.64
2023-02-14T22:26:26.495Z,74.04
2023-02-14T22:28:57.124Z,73.00
2023-02-14T22:31:26.268Z,73.97
2023-02-14T22:33:53.825Z,73.70
2023-02-14T22:36:21.371Z,73.06
2023-02-14T22:38:48.451Z,73.55
2023-02-14T22:41:18.217Z,73.88
2023-02-14T22:43:45.508Z,73.51
2023-02-14T22:46:15.223Z,74.16
2023-02-14T22:48:42.234Z,73.99
2023-02-14T22:51:18.103Z,74.66
2023-02-14T22:53:45.223Z,74.09
2023-02-14T22:56:29.996Z,73.93
2023-02-14T22:58:59.269Z,74.31
2023-02-14T23:01:27.441Z,74.93
2023-02-14T23:03:56.062Z,74.53
2023-02-14T23:06:24.778Z,74.63
2023-02-14T23:08:52.335Z,74.63
2023-02-14T23:11:22.460Z,75.19
2023-02-14T23:14:08.245Z,75.49
2023-02-14T23:16:53.840Z,75.70
2023-02-14T23:19:42.191Z,75.56
2023-02-14T23:22:12.626Z,75.17
2023-02-14T23:24:40.111Z,75.42
2023-02-14T23:27:08.904Z,75.43
2023-02-14T23:29:37.227Z,75.48
2023-02-14T23:32:05.921Z,75.63
2023-02-14T23:34:35.959Z,75.95
2023-02-14T23:37:03.330Z,76.16
2023-02-14T23:39:35.741Z,76.09
2023-02-14T23:42:07.531Z,76.49
2023-02-14T23:44:35.107Z,76.43
2023-02-14T23:47:04.609Z,76.80
2023-02-14T23:49:33.295Z,76.98
2023-02-14T23:52:00.605Z,77.37
2023-02-14T23:54:28.083Z,76.85
2023-02-14T23:56:55.600Z,76.59
2023-02-14T23:59:22.616Z,77.30
